createdAt,value
2023-04-10T00:03:31.946Z,25.45
2023-04-10T00:08:35.120Z,23.83
2023-04-10T00:13:38.220Z,24.58
2023-04-10T00:18:42.636Z,23.25
2023-04-10T00:23:45.797Z,22.92
2023-04-10T00:28:48.904Z,22.38
2023-04-10T00:33:53.563Z,21.98
2023-04-10T00:38:56.959Z,18.48
2023-04-10T00:44:00.283Z,18.38
2023-04-10T00:49:05.337Z,20.80
2023-04-10T00:54:10.378Z,17.42
2023-04-10T00:59:13.572Z,18.15
2023-04-10T01:04:18.620Z,20.67
2023-04-10T01:09:28.292Z,17.08
2023-04-10T01:14:34.275Z,16.80
2023-04-10T01:19:48.206Z,17.38
2023-04-10T01:24:57.687Z,19.13
2023-04-10T01:30:02.689Z,17.77
2023-04-10T01:35:08.430Z,15.10
2023-04-10T01:40:14.894Z,15.27
2023-04-10T01:45:21.876Z,15.63
2023-04-10T01:50:28.735Z,18.60
2023-04-10T01:55:32.912Z,17.08
2023-04-10T02:00:42.986Z,16.02
2023-04-10T02:05:50.678Z,15.35
2023-04-10T02:10:56.519Z,19.02
2023-04-10T02:16:03.987Z,16.75
2023-04-10T02:21:07.899Z,16.85
2023-04-10T02:26:11.005Z,16.15
2023-04-10T02:31:15.723Z,18.95
2023-04-10T02:36:18.879Z,18.02
2023-04-10T02:41:22.365Z,14.70
2023-04-10T02:46:27.053Z,18.90
2023-04-10T02:51:30.974Z,18.30
2023-04-10T02:56:34.833Z,21.20
2023-04-10T03:01:40.869Z,20.52
2023-04-10T03:06:44.264Z,16.33
2023-04-10T03:11:47.309Z,18.55
2023-04-10T03:16:51.815Z,17.10
2023-04-10T03:21:54.888Z,17.85
2023-04-10T03:26:58.639Z,17.90
2023-04-10T03:32:03.302Z,17.20
2023-04-10T03:37:06.922Z,19.70
2023-04-10T03:42:10.041Z,18.33
2023-04-10T03:47:15.296Z,19.05
2023-04-10T03:52:24.218Z,13.50
2023-04-10T03:57:27.625Z,20.00
2023-04-10T04:02:38.785Z,21.02
2023-04-10T04:07:42.904Z,22.20
2023-04-10T04:13:04.473Z,22.67
2023-04-10T04:18:18.289Z,23.65
2023-04-10T04:23:25.787Z,21.98
2023-04-10T04:28:48.152Z,19.98
2023-04-10T04:34:18.434Z,20.35
2023-04-10T04:39:42.914Z,19.15
2023-04-10T04:45:01.110Z,21.33
2023-04-10T04:50:25.794Z,21.98
2023-04-10T04:55:48.876Z,20.80
2023-04-10T05:01:08.727Z,23.95
2023-04-10T05:06:42.488Z,22.13
2023-04-10T05:12:04.279Z,22.25
2023-04-10T05:17:30.157Z,19.17
2023-04-10T05:22:53.074Z,20.00
2023-04-10T05:28:12.578Z,20.63
2023-04-10T05:33:34.165Z,20.10
2023-04-10T05:39:00.018Z,21.75
2023-04-10T05:44:29.266Z,27.02
2023-04-10T05:49:41.984Z,19.02
2023-04-10T05:54:47.030Z,19.67
2023-04-10T05:59:50.102Z,20.98
2023-04-10T06:05:02.045Z,20.48
2023-04-10T06:10:11.568Z,20.60
2023-04-10T06:15:14.977Z,19.75
2023-04-10T06:20:19.096Z,24.00
2023-04-10T06:25:23.526Z,19.80
2023-04-10T06:30:26.649Z,20.20
2023-04-10T06:35:29.899Z,22.75
2023-04-10T06:40:34.460Z,20.70
2023-04-10T06:45:37.587Z,20.73
2023-04-10T06:50:40.748Z,20.70
2023-04-10T06:55:45.247Z,36.65
2023-04-10T07:00:48.409Z,20.83
2023-04-10T07:05:51.519Z,19.05
2023-04-10T07:10:58.289Z,19.73
2023-04-10T07:16:01.848Z,19.10
2023-04-10T07:21:09.421Z,18.60
2023-04-10T07:26:14.075Z,16.13
2023-04-10T07:31:18.044Z,15.57
2023-04-10T07:36:21.141Z,17.23
2023-04-10T07:41:25.608Z,17.20
2023-04-10T07:46:28.822Z,17.17
2023-04-10T07:51:31.952Z,14.85
2023-04-10T07:56:36.516Z,14.77
2023-04-10T08:01:39.647Z,14.85
2023-04-10T08:06:42.822Z,33.25
2023-04-10T08:11:47.735Z,14.90
2023-04-10T08:16:50.896Z,16.45
2023-04-10T08:21:53.961Z,13.65
2023-04-10T08:26:58.415Z,13.32
2023-04-10T08:32:01.478Z,12.98
2023-04-10T08:37:06.387Z,10.70
2023-04-10T08:42:10.896Z,13.20
2023-04-10T08:47:14.550Z,13.25
2023-04-10T08:52:21.852Z,12.60
2023-04-10T08:57:27.329Z,37.78
2023-04-10T09:02:30.528Z,15.55
2023-04-10T09:07:33.827Z,13.20
2023-04-10T09:12:47.534Z,11.75
2023-04-10T09:17:57.552Z,13.60
2023-04-10T09:23:01.740Z,10.63
2023-04-10T09:28:07.101Z,14.73
2023-04-10T09:33:22.232Z,11.82
2023-04-10T09:38:25.900Z,50.15
2023-04-10T09:43:30.462Z,13.27
2023-04-10T09:48:33.576Z,11.52
2023-04-10T09:53:49.001Z,12.82
2023-04-10T09:58:54.844Z,10.50
2023-04-10T10:04:01.840Z,12.75
2023-04-10T10:09:05.740Z,13.45
2023-04-10T10:14:12.980Z,11.07
2023-04-10T10:19:20.590Z,13.05
2023-04-10T10:24:26.203Z,11.98
2023-04-10T10:29:33.124Z,10.02
2023-04-10T10:34:36.728Z,11.15
2023-04-10T10:39:45.955Z,10.85
2023-04-10T10:44:52.136Z,10.55
2023-04-10T10:49:56.515Z,14.70
2023-04-10T10:55:00.798Z,17.50
2023-04-10T11:00:06.155Z,10.43
2023-04-10T11:05:09.318Z,10.13
2023-04-10T11:10:12.468Z,9.43
2023-04-10T11:15:23.790Z,11.38
2023-04-10T11:20:28.566Z,8.60
2023-04-10T11:25:46.525Z,8.60
2023-04-10T11:30:50.976Z,7.60
2023-04-10T11:35:54.223Z,7.43
2023-04-10T11:40:58.521Z,10.15
2023-04-10T11:46:04.366Z,9.32
2023-04-10T11:51:08.658Z,8.43
2023-04-10T11:56:18.811Z,10.07
2023-04-10T12:01:23.821Z,9.52
2023-04-10T12:06:27.631Z,8.50
2023-04-10T12:11:30.718Z,10.45
2023-04-10T12:16:35.284Z,7.35
2023-04-10T12:21:38.670Z,9.98
2023-04-10T12:26:48.322Z,15.77
2023-04-10T12:31:52.804Z,11.43
2023-04-10T12:36:56.177Z,6.88
2023-04-10T12:42:11.694Z,9.23
2023-04-10T12:47:16.184Z,5.93
2023-04-10T12:52:23.774Z,7.25
2023-04-10T12:57:27.382Z,5.88
2023-04-10T13:02:31.987Z,12.63
2023-04-10T13:07:35.150Z,6.35
2023-04-10T13:12:39.175Z,6.63
2023-04-10T13:17:43.801Z,5.63
2023-04-10T13:22:46.912Z,8.80
2023-04-10T13:27:49.957Z,6.22
2023-04-10T13:32:54.672Z,6.30
2023-04-10T13:37:57.774Z,7.57
2023-04-10T13:43:00.881Z,6.10
2023-04-10T13:48:07.311Z,8.63
2023-04-10T13:53:10.732Z,7.75
2023-04-10T13:58:13.960Z,6.05
2023-04-10T14:03:18.456Z,6.40
2023-04-10T14:08:21.606Z,5.65
2023-04-10T14:13:24.735Z,10.05
2023-04-10T14:18:29.263Z,12.23
2023-04-10T14:23:32.343Z,6.53
2023-04-10T14:28:35.753Z,5.90
2023-04-10T14:33:40.198Z,8.25
2023-04-10T14:38:43.265Z,5.72
2023-04-10T14:43:46.347Z,5.38
2023-04-10T14:48:50.915Z,8.93
2023-04-10T14:53:54.281Z,7.05
2023-04-10T14:58:57.489Z,6.57
2023-04-10T15:04:02.238Z,6.65
2023-04-10T15:09:05.690Z,7.97
2023-04-10T15:14:08.815Z,5.43
2023-04-10T15:19:13.299Z,5.97
2023-04-10T15:24:16.443Z,5.97
2023-04-10T15:29:19.613Z,6.13
2023-04-10T15:34:24.045Z,6.70
2023-04-10T15:39:27.178Z,8.52
2023-04-10T15:44:30.290Z,9.27
2023-04-10T15:49:38.350Z,10.57
2023-04-10T15:54:42.397Z,7.35
2023-04-10T15:59:45.543Z,7.85
2023-04-10T16:04:50.175Z,6.95
2023-04-10T16:09:55.145Z,9.13
2023-04-10T16:14:58.339Z,5.82
2023-04-10T16:20:05.467Z,6.25
2023-04-10T16:25:09.048Z,11.77
2023-04-10T16:30:13.145Z,9.00
2023-04-10T16:35:19.093Z,6.30
2023-04-10T16:40:22.488Z,7.22
2023-04-10T16:45:25.585Z,7.50
2023-04-10T16:50:30.058Z,6.72
2023-04-10T16:55:33.127Z,6.40
2023-04-10T17:00:36.463Z,7.38
2023-04-10T17:05:40.953Z,6.72
2023-04-10T17:10:44.056Z,8.98
2023-04-10T17:15:47.182Z,7.72
2023-04-10T17:20:51.621Z,7.13
2023-04-10T17:25:54.745Z,10.52
2023-04-10T17:30:57.970Z,10.05
2023-04-10T17:36:02.435Z,17.10
2023-04-10T17:41:05.860Z,9.10
2023-04-10T17:46:08.941Z,11.38
2023-04-10T17:51:13.401Z,9.45
2023-04-10T17:56:20.831Z,8.63
2023-04-10T18:01:24.332Z,10.75
2023-04-10T18:06:28.947Z,8.63
2023-04-10T18:11:32.013Z,6.43
2023-04-10T18:16:35.140Z,9.00
2023-04-10T18:21:41.925Z,7.35
2023-04-10T18:26:45.251Z,5.35
2023-04-10T18:31:48.547Z,7.47
2023-04-10T18:36:54.024Z,7.03
2023-04-10T18:41:58.055Z,6.85
2023-04-10T18:47:04.516Z,8.75
2023-04-10T18:52:09.649Z,5.85
2023-04-10T18:57:13.923Z,6.18
2023-04-10T19:02:17.296Z,9.23
2023-04-10T19:07:22.054Z,7.93
2023-04-10T19:12:25.191Z,10.40
2023-04-10T19:17:28.459Z,12.50
2023-04-10T19:22:34.842Z,7.35
2023-04-10T19:27:38.014Z,8.77
2023-04-10T19:32:42.057Z,8.48
2023-04-10T19:37:46.582Z,8.43
2023-04-10T19:42:49.670Z,7.90
2023-04-10T19:47:53.095Z,5.47
2023-04-10T19:52:57.625Z,7.45
2023-04-10T19:58:00.821Z,8.50
2023-04-10T20:03:04.127Z,9.48
2023-04-10T20:08:08.821Z,8.52
2023-04-10T20:13:11.923Z,5.63
2023-04-10T20:18:15.840Z,5.40
2023-04-10T20:23:20.421Z,7.95
2023-04-10T20:28:23.569Z,8.38
2023-04-10T20:33:26.742Z,7.72
2023-04-10T20:38:31.253Z,5.32
2023-04-10T20:43:34.328Z,5.95
2023-04-10T20:48:38.406Z,8.18
2023-04-10T20:53:42.939Z,7.75
2023-04-10T20:58:46.064Z,12.10
2023-04-10T21:03:49.239Z,8.30
2023-04-10T21:08:54.033Z,10.48
2023-04-10T21:13:58.439Z,7.78
2023-04-10T21:19:01.484Z,6.90
2023-04-10T21:24:06.339Z,12.15
2023-04-10T21:29:09.562Z,9.77
2023-04-10T21:34:12.695Z,11.05
2023-04-10T21:39:17.164Z,12.10
2023-04-10T21:44:21.107Z,10.73
2023-04-10T21:49:24.238Z,12.98
2023-04-10T21:54:30.977Z,13.27
2023-04-10T21:59:34.048Z,14.40
2023-04-10T22:04:41.638Z,10.80
2023-04-10T22:09:56.240Z,9.68
2023-04-10T22:14:59.411Z,9.60
2023-04-10T22:20:02.660Z,15.90
2023-04-10T22:25:07.548Z,18.08
2023-04-10T22:30:11.293Z,14.15
2023-04-10T22:35:14.570Z,17.42
2023-04-10T22:40:19.209Z,14.77
2023-04-10T22:45:22.380Z,20.25
2023-04-10T22:50:25.510Z,17.75
2023-04-10T22:55:29.941Z,17.63
2023-04-10T23:00:33.766Z,20.10
2023-04-10T23:05:36.847Z,19.38
2023-04-10T23:10:41.306Z,19.27
2023-04-10T23:15:49.187Z,23.50
2023-04-10T23:20:52.351Z,21.42
2023-04-10T23:25:59.428Z,17.58
2023-04-10T23:31:02.562Z,17.98
2023-04-10T23:36:06.145Z,12.63
2023-04-10T23:41:10.740Z,11.93
2023-04-10T23:46:13.960Z,18.17
2023-04-10T23:51:17.072Z,27.50
2023-04-10T23:56:27.996Z,29.08
